Map

Track Data

SID SEASON NUMBER BASIN SUBBASIN NAME ISO_TIME NATURE LAT LON WMO_WIND WMO_PRES WMO_AGENCY TRACK_TYPE DIST2LAND LANDFALL IFLAG USA_AGENCY USA_ATCF_ID USA_LAT USA_LON USA_RECORD USA_STATUS USA_WIND USA_PRES USA_SSHS USA_R34_NE USA_R34_SE USA_R34_SW USA_R34_NW USA_R50_NE USA_R50_SE USA_R50_SW USA_R50_NW USA_R64_NE USA_R64_SE USA_R64_SW USA_R64_NW USA_POCI USA_ROCI USA_RMW USA_EYE TOKYO_LAT TOKYO_LON TOKYO_GRADE TOKYO_WIND TOKYO_PRES TOKYO_R50_DIR TOKYO_R50_LONG TOKYO_R50_SHORT TOKYO_R30_DIR TOKYO_R30_LONG TOKYO_R30_SHORT TOKYO_LAND CMA_LAT CMA_LON CMA_CAT CMA_WIND CMA_PRES HKO_LAT HKO_LON HKO_CAT HKO_WIND HKO_PRES NEWDELHI_LAT NEWDELHI_LON NEWDELHI_GRADE NEWDELHI_WIND NEWDELHI_PRES NEWDELHI_CI NEWDELHI_DP NEWDELHI_POCI REUNION_LAT REUNION_LON REUNION_TYPE REUNION_WIND REUNION_PRES REUNION_TNUM REUNION_CI REUNION_RMW REUNION_R34_NE REUNION_R34_SE REUNION_R34_SW REUNION_R34_NW REUNION_R50_NE REUNION_R50_SE REUNION_R50_SW REUNION_R50_NW REUNION_R64_NE REUNION_R64_SE REUNION_R64_SW REUNION_R64_NW BOM_LAT BOM_LON BOM_TYPE BOM_WIND BOM_PRES BOM_TNUM BOM_CI BOM_RMW BOM_R34_NE BOM_R34_SE BOM_R34_SW BOM_R34_NW BOM_R50_NE BOM_R50_SE BOM_R50_SW BOM_R50_NW BOM_R64_NE BOM_R64_SE BOM_R64_SW BOM_R64_NW BOM_ROCI BOM_POCI BOM_EYE BOM_POS_METHOD BOM_PRES_METHOD NADI_LAT NADI_LON NADI_CAT NADI_WIND NADI_PRES WELLINGTON_LAT WELLINGTON_LON WELLINGTON_WIND WELLINGTON_PRES DS824_LAT DS824_LON DS824_STAGE DS824_WIND DS824_PRES TD9636_LAT TD9636_LON TD9636_STAGE TD9636_WIND TD9636_PRES TD9635_LAT TD9635_LON TD9635_WIND TD9635_PRES TD9635_ROCI NEUMANN_LAT NEUMANN_LON NEUMANN_CLASS NEUMANN_WIND NEUMANN_PRES MLC_LAT MLC_LON MLC_CLASS MLC_WIND MLC_PRES USA_GUST BOM_GUST BOM_GUST_PER REUNION_GUST REUNION_GUST_PER USA_SEAHGT USA_SEARAD_NE USA_SEARAD_SE USA_SEARAD_SW USA_SEARAD_NW STORM_SPEED STORM_DIR
1997262N22184 1997 85 EP CP ELLA 1997-09-18 18:00:00 NR 22.0000 184.400 main 1627 1627 O_____________ jtwc_wp WP231997 22.0000 -175.600 15 -1 8 278
1997262N22184 1997 85 EP CP ELLA 1997-09-18 21:00:00 NR 22.0526 183.980 main 1668 1668 P_____________ WP231997 22.0526 -176.020 15 -1 8 277
1997262N22184 1997 85 EP CP ELLA 1997-09-19 00:00:00 NR 22.1000 183.500 main 1719 1719 O_____________ jtwc_wp WP231997 22.1000 -176.500 15 -1 10 275
1997262N22184 1997 85 EP CP ELLA 1997-09-19 03:00:00 NR 22.1425 182.922 main 1781 1781 P_____________ WP231997 22.1425 -177.078 15 -1 11 275
1997262N22184 1997 85 EP CP ELLA 1997-09-19 06:00:00 NR 22.2000 182.300 main 1842 1842 O_____________ jtwc_wp WP231997 22.2000 -177.700 15 -1 11 278
1997262N22184 1997 85 EP CP ELLA 1997-09-19 09:00:00 NR 22.2998 181.700 main 1903 1903 P_____________ WP231997 22.2998 -178.300 15 -1 11 280
1997262N22184 1997 85 EP CP ELLA 1997-09-19 12:00:00 NR 22.4000 181.100 main 1964 1964 O_____________ jtwc_wp WP231997 22.4000 -178.900 15 -1 11 278
1997262N22184 1997 85 EP CP ELLA 1997-09-19 15:00:00 NR 22.4498 180.500 main 2026 2026 P_____________ WP231997 22.4498 -179.500 17 -1 11 275
1997262N22184 1997 85 WP MM ELLA 1997-09-19 18:00:00 NR 22.5000 179.900 main 2087 2087 O_____________ jtwc_wp WP231997 22.5000 179.900 20 -1 11 277
1997262N22184 1997 85 WP MM ELLA 1997-09-19 21:00:00 NR 22.5921 179.315 main 2148 2148 P_____________ WP231997 22.5921 179.315 22 -1 11 280
1997262N22184 1997 85 WP MM ELLA 1997-09-20 00:00:00 NR 22.7000 178.700 main 2209 2209 O_____________ jtwc_wp WP231997 22.7000 178.700 25 -1 12 279
1997262N22184 1997 85 WP MM ELLA 1997-09-20 03:00:00 NR 22.7924 178.015 main 2281 2281 P_____________ WP231997 22.7924 178.015 27 -1 13 279
1997262N22184 1997 85 WP MM ELLA 1997-09-20 06:00:00 NR 22.9000 177.300 main 2352 2352 O_____________ jtwc_wp WP231997 22.9000 177.300 30 -1 13 281
1997262N22184 1997 85 WP MM ELLA 1997-09-20 09:00:00 NR 23.0341 176.637 main 2423 2423 P_____________ WP231997 23.0341 176.637 32 -1 13 283
1997262N22184 1997 85 WP MM ELLA 1997-09-20 12:00:00 NR 23.2000 175.900 main 2494 2494 O_____________ jtwc_wp WP231997 23.2000 175.900 35 0 15 283
1997262N22184 1997 85 WP MM ELLA 1997-09-20 15:00:00 NR 23.3773 175.002 main 2585 2585 P_____________ WP231997 23.3773 175.002 35 0 18 283
1997262N22184 1997 85 WP MM ELLA 1997-09-20 18:00:00 NR 23.6000 174.000 main 2686 2686 O_____________ jtwc_wp WP231997 23.6000 174.000 35 0 19 285
1997262N22184 1997 85 WP MM ELLA 1997-09-20 21:00:00 NR 23.8764 172.994 main 2787 2787 P_____________ WP231997 23.8764 172.994 35 0 20 287
1997262N22184 1997 85 WP MM ELLA 1997-09-21 00:00:00 NR 24.2000 171.900 main 2898 2898 O_____________ jtwc_wp WP231997 24.2000 171.900 35 0 22 288
1997262N22184 1997 85 WP MM ELLA 1997-09-21 03:00:00 NR 24.5420 170.687 main 3007 2905 P_____________ WP231997 24.5420 170.687 32 -1 23 288
1997262N22184 1997 85 WP MM ELLA 1997-09-21 06:00:00 NR 24.9000 169.480 main 2905 2807 O__O__________ jtwc_wp WP231997 24.9000 169.400 30 -1 24.9000 169.800 TD 30 1006 24 288
1997262N22184 1997 85 WP MM ELLA 1997-09-21 09:00:00 NR 25.2652 168.171 main 2798 2707 P__P__________ WP231997 25.2646 168.085 30 -1 25.2662 168.342 TD 30 1006 24 287
1997262N22184 1997 85 WP MM ELLA 1997-09-21 12:00:00 NR 25.6000 166.886 main 2702 2604 O__O__________ jtwc_wp WP231997 25.6000 166.800 30 -1 25.6000 167.000 TD 30 1006 23 286
1997262N22184 1997 85 WP MM ELLA 1997-09-21 15:00:00 NR 25.8784 165.737 main 2595 2498 P__P__________ WP231997 25.8712 165.619 32 -1 25.8855 165.855 TD 30 1006 21 284
1997262N22184 1997 85 WP MM ELLA 1997-09-21 18:00:00 NR 26.1000 164.650 main 2498 2393 O__O__________ jtwc_wp WP231997 26.1000 164.500 35 0 26.1000 164.800 TD 30 1006 20 281
1997262N22184 1997 85 WP MM ELLA 1997-09-21 21:00:00 NR 26.2717 163.542 main 2384 2294 P__P__________ WP231997 26.3141 163.385 37 0 26.2292 163.699 TD 30 1006 20 279
1997262N22184 1997 85 WP MM ELLA 1997-09-22 00:00:00 NR 26.4000 162.450 main 2294 2196 O__O__________ jtwc_wp WP231997 26.5000 162.300 40 0 26.3000 162.600 TD 30 1006 20 277
1997262N22184 1997 85 WP MM ELLA 1997-09-22 03:00:00 NR 26.4958 161.348 main 2187 2106 P__P__________ WP231997 26.6569 161.227 40 0 26.3348 161.469 TD 30 1006 19 276
1997262N22184 1997 85 WP MM ELLA 1997-09-22 06:00:00 NR 26.6000 160.300 main 2098 2018 O__O__________ jtwc_wp WP231997 26.8000 160.200 40 0 26.4000 160.400 TD 30 1006 18 278
1997262N22184 1997 85 WP MM ELLA 1997-09-22 09:00:00 NR 26.7448 159.300 main 2010 1932 P__P__________ WP231997 26.9351 159.175 37 0 26.5546 159.425 TD 30 1006 17 282
1997262N22184 1997 85 WP MM ELLA 1997-09-22 12:00:00 NR 26.9500 158.450 main 1925 1856 O__O__________ jtwc_wp WP231997 27.1000 158.300 35 0 26.8000 158.600 TD 30 1006 14 289
1997262N22184 1997 85 WP MM ELLA 1997-09-22 15:00:00 NR 27.2117 157.800 main 1856 1796 P__P__________ WP231997 27.2965 157.682 35 0 27.1270 157.918 TD 30 1006 12 300
1997262N22184 1997 85 WP MM ELLA 1997-09-22 18:00:00 NR 27.5571 157.286 main 1790 1730 O__O__________ jtwc_wp WP231997 27.6000 157.200 35 0 27.5000 157.400 TD 30 1006 12 308
1997262N22184 1997 85 WP MM ELLA 1997-09-22 21:00:00 NR 27.9494 156.751 main 1730 1652 P__P__________ WP231997 27.9953 156.618 35 0 27.8577 157.015 TD 30 1006 13 318
1997262N22184 1997 85 WP MM ELLA 1997-09-23 00:00:00 NR 28.5200 156.300 main 1652 1575 O__O__________ jtwc_wp WP231997 28.6000 156.200 35 0 28.2000 156.700 TD 30 1006 17 338
1997262N22184 1997 85 WP MM ELLA 1997-09-23 03:00:00 NR 29.4968 156.036 main 1569 1535 P_____________ WP231997 29.4968 156.036 35 0 TD 20 358
1997262N22184 1997 85 WP MM ELLA 1997-09-23 06:00:00 NR 30.5000 156.200 main 1533 1527 O_____________ jtwc_wp WP231997 30.5000 156.200 35 0 19 17
1997262N22184 1997 85 WP MM ELLA 1997-09-23 09:00:00 NR 31.3427 156.688 main 1540 1535 P_____________ WP231997 31.3427 156.688 32 -1 20 31
1997262N22184 1997 85 WP MM ELLA 1997-09-23 12:00:00 NR 32.2000 157.400 main 1566 1560 O_____________ jtwc_wp WP231997 32.2000 157.400 30 -1 22 33
1997262N22184 1997 85 WP MM ELLA 1997-09-23 15:00:00 NR 33.1694 158.099 main 1554 1493 P_____________ WP231997 33.1694 158.099 30 -1 24 32
1997262N22184 1997 85 WP MM ELLA 1997-09-23 18:00:00 NR 34.2000 158.900 main 1488 1429 O_____________ jtwc_wp WP231997 34.2000 158.900 30 -1 25 33
1997262N22184 1997 85 WP MM ELLA 1997-09-23 21:00:00 NR 35.2937 159.776 main 1425 1390 P_____________ WP231997 35.2937 159.776 30 -1 26 36
1997262N22184 1997 85 WP MM ELLA 1997-09-24 00:00:00 NR 36.3000 160.800 main 1387 1377 O_____________ jtwc_wp WP231997 36.3000 160.800 30 -1 25 45
1997262N22184 1997 85 WP MM ELLA 1997-09-24 03:00:00 NR 37.0901 162.014 main 1383 1383 P_____________ WP231997 37.0901 162.014 30 -1 24 55
1997262N22184 1997 85 WP MM ELLA 1997-09-24 06:00:00 NR 37.7000 163.300 main 1412 1410 O_____________ jtwc_wp WP231997 37.7000 163.300 30 -1 23 61
1997262N22184 1997 85 WP MM ELLA 1997-09-24 09:00:00 NR 38.2014 164.525 main 1450 1450 P_____________ WP231997 38.2014 164.525 30 -1 21 64
1997262N22184 1997 85 WP MM ELLA 1997-09-24 12:00:00 NR 38.6000 165.700 main 1501 1500 O_____________ jtwc_wp WP231997 38.6000 165.700 30 -1 20 67
1997262N22184 1997 85 WP MM ELLA 1997-09-24 15:00:00 NR 38.9793 166.846 main 1509 1509 P_____________ WP231997 38.9793 166.846 30 -1 18 68
1997262N22184 1997 85 WP MM ELLA 1997-09-24 18:00:00 NR 39.3000 167.900 main 1531 1531 O_____________ jtwc_wp WP231997 39.3000 167.900 30 -1 16 69
1997262N22184 1997 85 WP MM ELLA 1997-09-24 21:00:00 NR 39.5660 168.834 main 1548 1548 P_____________ WP231997 39.5660 168.834 27 -1 15 70
1997262N22184 1997 85 WP MM ELLA 1997-09-25 00:00:00 NR 39.8000 169.700 main 1577 O_____________ jtwc_wp WP231997 39.8000 169.700 25 -1 14 71

About IBTrACS Database

This database is a web-friendly format of International Best Track Archive for Climate Stewardship (IBTrACS), a global best track data archive curated by NOAA dating back to 1842.

Updated: 2021-12-03